createdAt,value
2019-02-25T00:01:57.554Z,1.54
2019-02-25T00:04:27.758Z,1.49
2019-02-25T00:06:59.192Z,1.60
2019-02-25T00:09:27.746Z,1.61
2019-02-25T00:11:59.413Z,1.61
2019-02-25T00:14:27.967Z,1.69
2019-02-25T00:16:56.560Z,1.68
2019-02-25T00:19:25.121Z,1.73
2019-02-25T00:21:56.502Z,1.74
2019-02-25T00:24:25.575Z,1.73
2019-02-25T00:26:54.164Z,1.80
2019-02-25T00:29:22.726Z,1.77
2019-02-25T00:31:54.066Z,1.75
2019-02-25T00:34:22.622Z,1.78
2019-02-25T00:36:51.203Z,1.86
2019-02-25T00:39:19.764Z,1.88
2019-02-25T00:41:48.349Z,1.85
2019-02-25T00:44:19.938Z,1.83
2019-02-25T00:46:51.196Z,1.76
2019-02-25T00:49:22.705Z,1.72
2019-02-25T00:51:51.276Z,1.64
2019-02-25T00:54:22.801Z,1.61
2019-02-25T00:56:51.386Z,1.56
2019-02-25T00:59:22.610Z,1.58
2019-02-25T01:01:53.874Z,1.59
2019-02-25T01:04:22.431Z,1.58
2019-02-25T01:06:51.245Z,1.69
2019-02-25T01:09:23.031Z,1.60
2019-02-25T01:11:51.627Z,1.65
2019-02-25T01:14:20.217Z,1.62
2019-02-25T01:16:48.805Z,1.65
2019-02-25T01:19:20.175Z,1.49
2019-02-25T01:21:51.656Z,1.53
2019-02-25T01:24:22.914Z,1.49
2019-02-25T01:26:51.655Z,1.48
2019-02-25T01:29:23.049Z,1.45
2019-02-25T01:31:54.619Z,1.39
2019-02-25T01:34:26.227Z,1.42
2019-02-25T01:36:57.585Z,1.40
2019-02-25T01:39:28.900Z,1.45
2019-02-25T01:42:00.262Z,1.34
2019-02-25T01:44:31.806Z,1.10
2019-02-25T01:47:03.312Z,1.08
2019-02-25T01:49:34.899Z,1.01
2019-02-25T01:52:06.251Z,0.99
2019-02-25T01:54:37.858Z,1.05
2019-02-25T01:57:09.186Z,1.08
2019-02-25T01:59:37.738Z,1.10
2019-02-25T02:02:06.323Z,1.10
2019-02-25T02:04:34.892Z,1.03
2019-02-25T02:07:06.469Z,1.00
2019-02-25T02:09:38.008Z,0.90
2019-02-25T02:12:06.596Z,0.80
2019-02-25T02:14:37.908Z,0.80
2019-02-25T02:17:06.758Z,0.86
2019-02-25T02:19:38.756Z,0.97
2019-02-25T02:22:07.350Z,1.08
2019-02-25T02:24:36.074Z,0.97
2019-02-25T02:27:04.800Z,0.92
2019-02-25T02:29:36.388Z,0.94
2019-02-25T02:32:04.983Z,0.87
2019-02-25T02:34:33.536Z,0.87
2019-02-25T02:37:04.814Z,0.92
2019-02-25T02:39:36.423Z,0.97
2019-02-25T02:42:19.746Z,0.96
2019-02-25T02:44:53.828Z,0.94
2019-02-25T02:47:31.419Z,0.88
2019-02-25T02:50:02.016Z,0.93
2019-02-25T02:52:30.598Z,0.82
2019-02-25T02:54:59.160Z,0.85
2019-02-25T02:57:27.752Z,0.94
2019-02-25T02:59:56.314Z,0.91
2019-02-25T03:02:27.815Z,0.87
2019-02-25T03:04:59.643Z,0.87
2019-02-25T03:07:31.136Z,0.90
2019-02-25T03:09:59.694Z,0.89
2019-02-25T03:12:28.692Z,0.89
2019-02-25T03:15:00.415Z,0.81
2019-02-25T03:17:30.023Z,0.77
2019-02-25T03:20:01.965Z,0.64
2019-02-25T03:22:33.444Z,0.52
2019-02-25T03:25:02.003Z,0.47
2019-02-25T03:27:33.562Z,0.42
2019-02-25T03:30:07.989Z,0.38
2019-02-25T03:32:39.517Z,0.31
2019-02-25T03:35:08.154Z,0.25
2019-02-25T03:37:36.767Z,0.27
2019-02-25T03:40:11.831Z,0.22
2019-02-25T03:42:43.950Z,0.36
2019-02-25T03:45:14.453Z,0.39
2019-02-25T03:47:45.583Z,0.34
2019-02-25T03:50:14.449Z,0.34
2019-02-25T03:52:48.975Z,0.48
2019-02-25T03:55:20.132Z,0.41
2019-02-25T03:57:51.815Z,0.44
2019-02-25T04:00:26.962Z,0.56
2019-02-25T04:02:58.484Z,0.61
2019-02-25T04:05:27.024Z,0.63
2019-02-25T04:07:58.770Z,0.64
2019-02-25T04:10:30.021Z,0.70
2019-02-25T04:13:01.293Z,0.64
2019-02-25T04:15:34.050Z,0.53
2019-02-25T04:18:03.299Z,0.53
2019-02-25T04:20:31.856Z,0.61
2019-02-25T04:23:03.182Z,0.55
2019-02-25T04:25:34.736Z,0.54
2019-02-25T04:28:03.433Z,0.56
2019-02-25T04:30:34.838Z,0.59
2019-02-25T04:33:06.139Z,0.62
2019-02-25T04:35:37.699Z,0.61
2019-02-25T04:38:09.223Z,0.53
2019-02-25T04:40:37.801Z,0.60
2019-02-25T04:43:09.213Z,0.44
2019-02-25T04:45:37.791Z,0.54
2019-02-25T04:48:09.430Z,0.61
2019-02-25T04:50:41.072Z,0.55
2019-02-25T04:53:12.346Z,0.66
2019-02-25T04:55:40.938Z,0.70
2019-02-25T04:58:14.660Z,0.75
2019-02-25T05:00:48.947Z,0.81
2019-02-25T05:03:17.506Z,0.73
2019-02-25T05:05:48.925Z,0.50
2019-02-25T05:08:20.337Z,0.54
2019-02-25T05:10:51.836Z,0.38
2019-02-25T05:13:23.699Z,0.26
2019-02-25T05:15:52.299Z,0.22
2019-02-25T05:18:23.864Z,0.10
2019-02-25T05:20:52.445Z,0.11
2019-02-25T05:23:23.992Z,0.07
2019-02-25T05:25:55.301Z,-0.02
2019-02-25T05:28:23.864Z,-0.09
2019-02-25T05:30:52.457Z,-0.06
2019-02-25T05:33:23.939Z,-0.03
2019-02-25T05:35:55.189Z,-0.04
2019-02-25T05:38:26.564Z,-0.02
2019-02-25T05:40:58.299Z,-0.08
2019-02-25T05:43:29.856Z,0.01
2019-02-25T05:45:58.446Z,-0.10
2019-02-25T05:48:29.880Z,-0.11
2019-02-25T05:51:01.508Z,-0.12
2019-02-25T05:53:30.084Z,-0.17
2019-02-25T05:56:01.613Z,-0.12
2019-02-25T05:58:32.843Z,-0.12
2019-02-25T06:01:01.431Z,-0.08
2019-02-25T06:03:32.670Z,-0.08
2019-02-25T06:06:01.256Z,0.03
2019-02-25T06:08:32.621Z,0.02
2019-02-25T06:11:04.202Z,-0.04
2019-02-25T06:13:35.443Z,-0.03
2019-02-25T06:16:04.453Z,-0.06
2019-02-25T06:18:36.009Z,-0.04
2019-02-25T06:21:04.598Z,0.00
2019-02-25T06:23:33.308Z,0.07
2019-02-25T06:26:02.089Z,0.10
2019-02-25T06:28:30.858Z,0.16
2019-02-25T06:30:59.439Z,0.11
2019-02-25T06:33:28.007Z,0.05
2019-02-25T06:35:56.921Z,0.05
2019-02-25T06:38:28.437Z,0.05
2019-02-25T06:41:00.029Z,0.13
2019-02-25T06:43:28.592Z,0.05
2019-02-25T06:46:00.284Z,0.14
2019-02-25T06:48:29.185Z,0.12
2019-02-25T06:51:00.710Z,0.21
2019-02-25T06:53:29.270Z,0.22
2019-02-25T06:55:57.860Z,0.20
2019-02-25T06:58:29.090Z,0.19
2019-02-25T07:01:00.447Z,0.19
2019-02-25T07:03:29.009Z,0.10
2019-02-25T07:05:59.292Z,0.20
2019-02-25T07:08:46.690Z,0.35
2019-02-25T07:11:19.934Z,0.40
2019-02-25T07:14:02.113Z,0.64
2019-02-25T07:16:35.324Z,0.77
2019-02-25T07:19:05.938Z,0.88
2019-02-25T07:21:41.622Z,1.08
2019-02-25T07:24:17.606Z,1.13
2019-02-25T07:26:59.773Z,1.24
2019-02-25T07:29:41.214Z,1.35
2019-02-25T07:32:27.710Z,1.42
2019-02-25T07:35:03.963Z,1.52
2019-02-25T07:37:34.559Z,1.60
2019-02-25T07:40:16.699Z,1.77
2019-02-25T07:42:51.414Z,1.81
2019-02-25T07:45:24.143Z,1.86
2019-02-25T07:48:09.419Z,1.96
2019-02-25T07:50:54.683Z,2.11
2019-02-25T07:53:30.802Z,2.33
2019-02-25T07:56:10.155Z,2.41
2019-02-25T07:58:49.057Z,2.52
2019-02-25T08:01:22.125Z,2.61
2019-02-25T08:03:52.770Z,2.72
2019-02-25T08:06:32.178Z,2.90
2019-02-25T08:09:05.750Z,3.12
2019-02-25T08:11:48.109Z,3.29
2019-02-25T08:14:39.623Z,3.47
2019-02-25T08:17:26.168Z,3.69
2019-02-25T08:20:12.347Z,3.87
2019-02-25T08:22:42.561Z,4.03
2019-02-25T08:25:21.183Z,4.19
2019-02-25T08:28:00.065Z,4.30
2019-02-25T08:30:39.016Z,4.37
2019-02-25T08:33:21.167Z,4.73
2019-02-25T08:35:57.342Z,4.73
2019-02-25T08:38:33.219Z,4.86
2019-02-25T08:41:04.908Z,5.00
2019-02-25T08:43:43.811Z,5.26
2019-02-25T08:46:24.070Z,5.26
2019-02-25T08:49:00.352Z,5.29
2019-02-25T08:51:31.885Z,5.29
2019-02-25T08:54:00.473Z,5.51
2019-02-25T08:56:29.107Z,5.51
2019-02-25T08:58:57.686Z,5.57
2019-02-25T09:01:29.878Z,5.57
2019-02-25T09:04:00.895Z,5.80
2019-02-25T09:06:29.477Z,5.90
2019-02-25T09:09:00.979Z,5.98
2019-02-25T09:11:29.551Z,5.98
2019-02-25T09:13:58.128Z,6.09
2019-02-25T09:16:42.449Z,6.25
2019-02-25T09:19:15.742Z,6.35
2019-02-25T09:21:47.640Z,6.41
2019-02-25T09:24:18.985Z,6.66
2019-02-25T09:26:50.288Z,6.66
2019-02-25T09:29:18.870Z,6.82
2019-02-25T09:31:47.437Z,6.93
2019-02-25T09:34:22.503Z,7.06
2019-02-25T09:36:51.525Z,7.08
2019-02-25T09:39:22.827Z,7.21
2019-02-25T09:41:54.085Z,7.15
2019-02-25T09:44:25.918Z,7.20
2019-02-25T09:46:54.487Z,7.34
2019-02-25T09:49:25.783Z,7.55
2019-02-25T09:51:54.355Z,7.70
2019-02-25T09:54:22.918Z,7.74
2019-02-25T09:56:51.504Z,7.89
2019-02-25T09:59:23.024Z,7.94
2019-02-25T10:01:54.673Z,8.18
2019-02-25T10:04:25.949Z,8.26
2019-02-25T10:07:02.387Z,8.46
2019-02-25T10:09:32.429Z,8.78
2019-02-25T10:12:03.599Z,9.03
2019-02-25T10:14:34.900Z,9.09
2019-02-25T10:17:03.729Z,9.19
2019-02-25T10:19:35.395Z,9.17
2019-02-25T10:22:06.913Z,9.38
2019-02-25T10:24:39.867Z,9.35
2019-02-25T10:27:11.670Z,9.30
2019-02-25T10:29:43.003Z,9.21
2019-02-25T10:32:14.333Z,9.38
2019-02-25T10:34:47.552Z,9.36
2019-02-25T10:37:19.728Z,9.45
2019-02-25T10:39:51.544Z,9.61
2019-02-25T10:42:23.162Z,9.55
2019-02-25T10:44:54.420Z,9.50
2019-02-25T10:47:26.113Z,9.66
2019-02-25T10:49:56.574Z,9.64
2019-02-25T10:52:29.580Z,9.83
2019-02-25T10:54:58.351Z,9.88
2019-02-25T10:57:31.434Z,9.81
2019-02-25T11:00:04.602Z,9.98
2019-02-25T11:02:44.000Z,10.00
2019-02-25T11:05:09.866Z,10.12
2019-02-25T11:07:42.021Z,10.12
2019-02-25T11:10:20.239Z,10.33
2019-02-25T11:12:48.827Z,10.39
2019-02-25T11:15:17.755Z,10.38
2019-02-25T11:17:48.000Z,10.48
2019-02-25T11:20:20.511Z,10.59
2019-02-25T11:22:51.975Z,10.69
2019-02-25T11:25:25.630Z,10.92
2019-02-25T11:27:56.496Z,10.86
2019-02-25T11:30:25.069Z,11.08
2019-02-25T11:32:55.732Z,11.22
2019-02-25T11:35:24.305Z,11.27
2019-02-25T11:37:57.053Z,11.38
2019-02-25T11:40:31.066Z,11.40
2019-02-25T11:43:02.553Z,11.26
2019-02-25T11:45:36.254Z,11.37
2019-02-25T11:48:07.897Z,11.39
2019-02-25T11:50:39.186Z,11.53
2019-02-25T11:53:10.779Z,11.64
2019-02-25T11:55:42.434Z,11.66
2019-02-25T11:58:14.738Z,11.79
2019-02-25T12:00:46.394Z,11.87
2019-02-25T12:03:18.385Z,11.87
2019-02-25T12:05:46.969Z,11.96
2019-02-25T12:08:18.465Z,11.75
2019-02-25T12:10:47.030Z,11.83
2019-02-25T12:13:18.408Z,11.97
2019-02-25T12:15:46.968Z,12.12
2019-02-25T12:18:15.768Z,12.23
2019-02-25T12:20:44.334Z,12.17
2019-02-25T12:23:19.294Z,12.24
2019-02-25T12:25:47.882Z,12.37
2019-02-25T12:28:19.178Z,12.44
2019-02-25T12:30:47.813Z,12.65
2019-02-25T12:33:19.334Z,12.68
2019-02-25T12:35:47.893Z,12.71
2019-02-25T12:38:19.199Z,12.74
2019-02-25T12:40:50.773Z,12.59
2019-02-25T12:43:22.125Z,12.63
2019-02-25T12:45:50.698Z,12.69
2019-02-25T12:48:22.829Z,12.89
2019-02-25T12:50:54.579Z,12.92
2019-02-25T12:53:30.990Z,12.91
2019-02-25T12:56:00.131Z,13.02
2019-02-25T12:58:28.724Z,12.93
2019-02-25T13:00:57.604Z,13.03
2019-02-25T13:03:29.155Z,12.98
2019-02-25T13:06:01.647Z,12.99
2019-02-25T13:08:33.369Z,13.05
2019-02-25T13:11:01.937Z,13.04
2019-02-25T13:13:30.518Z,13.01
2019-02-25T13:15:59.085Z,13.05
2019-02-25T13:18:28.345Z,12.87
2019-02-25T13:20:59.582Z,12.95
2019-02-25T13:23:28.169Z,12.92
2019-02-25T13:25:56.771Z,12.83
2019-02-25T13:28:26.267Z,12.79
2019-02-25T13:30:55.731Z,12.85
2019-02-25T13:33:24.702Z,12.90
2019-02-25T13:35:53.440Z,12.98
2019-02-25T13:38:22.039Z,13.07
2019-02-25T13:40:50.609Z,13.16
2019-02-25T13:43:19.194Z,13.29
2019-02-25T13:45:47.762Z,13.05
2019-02-25T13:48:19.024Z,13.08
2019-02-25T13:50:47.666Z,12.95
2019-02-25T13:53:16.254Z,13.03
2019-02-25T13:55:46.904Z,13.03
2019-02-25T13:58:15.496Z,13.05
2019-02-25T14:00:45.709Z,13.03
2019-02-25T14:03:17.569Z,12.88
2019-02-25T14:05:46.132Z,12.98
2019-02-25T14:08:14.752Z,12.92
2019-02-25T14:10:46.665Z,12.94
2019-02-25T14:13:18.265Z,12.96
2019-02-25T14:15:49.742Z,12.91
2019-02-25T14:18:18.388Z,12.95
2019-02-25T14:20:49.636Z,12.90
2019-02-25T14:23:18.430Z,12.83
2019-02-25T14:25:51.231Z,12.89
2019-02-25T14:28:22.620Z,13.02
2019-02-25T14:30:51.672Z,13.03
2019-02-25T14:33:23.725Z,13.00
2019-02-25T14:35:55.608Z,13.00
2019-02-25T14:38:28.164Z,12.92
2019-02-25T14:41:01.881Z,12.95
2019-02-25T14:43:31.506Z,12.84
2019-02-25T14:46:04.844Z,12.82
2019-02-25T14:48:36.052Z,12.74
2019-02-25T14:51:08.816Z,12.69
2019-02-25T14:53:41.746Z,12.69
2019-02-25T14:56:10.511Z,12.68
2019-02-25T14:58:40.578Z,12.72
2019-02-25T15:01:09.530Z,12.69
2019-02-25T15:03:41.293Z,12.66
2019-02-25T15:06:14.247Z,12.73
2019-02-25T15:08:45.934Z,12.67
2019-02-25T15:11:18.042Z,12.64
2019-02-25T15:13:46.686Z,12.61
2019-02-25T15:16:18.575Z,12.62
2019-02-25T15:18:47.800Z,12.67
2019-02-25T15:21:19.755Z,12.61
2019-02-25T15:23:51.301Z,12.58
2019-02-25T15:26:23.613Z,12.54
2019-02-25T15:28:56.031Z,12.59
2019-02-25T15:31:23.702Z,12.51
2019-02-25T15:33:52.372Z,12.50
2019-02-25T15:36:24.745Z,12.49
2019-02-25T15:38:53.908Z,12.52
2019-02-25T15:41:25.502Z,12.51
2019-02-25T15:43:54.138Z,12.49
2019-02-25T15:46:26.493Z,12.43
2019-02-25T15:48:57.802Z,12.40
2019-02-25T15:51:30.405Z,12.20
2019-02-25T15:54:02.574Z,12.22
2019-02-25T15:56:34.402Z,12.14
2019-02-25T15:59:03.028Z,12.03
2019-02-25T16:01:34.661Z,12.02
2019-02-25T16:04:07.071Z,12.00
2019-02-25T16:06:37.715Z,11.88
2019-02-25T16:09:10.526Z,11.83
2019-02-25T16:11:39.748Z,11.80
2019-02-25T16:14:12.205Z,11.60
2019-02-25T16:16:40.801Z,11.45
2019-02-25T16:19:10.331Z,11.33
2019-02-25T16:21:41.011Z,11.23
2019-02-25T16:24:11.793Z,11.22
2019-02-25T16:26:40.677Z,11.14
2019-02-25T16:29:11.651Z,11.05
2019-02-25T16:31:40.542Z,10.96
2019-02-25T16:34:14.196Z,10.85
2019-02-25T16:36:42.389Z,10.67
2019-02-25T16:39:11.317Z,10.63
2019-02-25T16:41:41.750Z,10.59
2019-02-25T16:44:10.401Z,10.44
2019-02-25T16:46:41.215Z,10.38
2019-02-25T16:49:09.389Z,10.44
2019-02-25T16:51:38.361Z,10.38
2019-02-25T16:54:11.008Z,10.39
2019-02-25T16:56:37.399Z,10.27
2019-02-25T16:59:10.914Z,10.26
2019-02-25T17:01:37.666Z,10.28
2019-02-25T17:04:06.780Z,10.09
2019-02-25T17:06:36.974Z,9.91
2019-02-25T17:09:06.741Z,9.84
2019-02-25T17:11:37.410Z,9.82
2019-02-25T17:14:06.043Z,9.80
2019-02-25T17:16:35.679Z,9.68
2019-02-25T17:19:05.239Z,9.63
2019-02-25T17:21:33.970Z,9.59
2019-02-25T17:24:03.669Z,9.54
2019-02-25T17:26:33.662Z,9.58
2019-02-25T17:29:02.322Z,9.59
2019-02-25T17:31:34.529Z,9.55
2019-02-25T17:34:04.161Z,9.48
2019-02-25T17:36:36.373Z,9.45
2019-02-25T17:39:08.674Z,9.43
2019-02-25T17:41:39.844Z,9.31
2019-02-25T17:44:09.139Z,9.23
2019-02-25T17:46:41.293Z,9.24
2019-02-25T17:49:17.331Z,9.21
2019-02-25T17:51:46.456Z,9.26
2019-02-25T17:54:16.923Z,9.28
2019-02-25T17:56:49.757Z,9.22
2019-02-25T17:59:18.498Z,9.14
2019-02-25T18:01:48.456Z,9.23
2019-02-25T18:04:20.116Z,9.14
2019-02-25T18:06:48.701Z,9.19
2019-02-25T18:09:20.969Z,9.14
2019-02-25T18:11:50.438Z,9.18
2019-02-25T18:14:19.890Z,9.10
2019-02-25T18:16:49.591Z,9.19
2019-02-25T18:19:20.890Z,9.15
2019-02-25T18:21:49.250Z,9.15
2019-02-25T18:24:18.226Z,9.16
2019-02-25T18:26:47.468Z,9.16
2019-02-25T18:29:22.673Z,9.14
2019-02-25T18:31:52.193Z,9.02
2019-02-25T18:34:20.970Z,8.93
2019-02-25T18:36:51.620Z,9.09
2019-02-25T18:39:20.959Z,9.08
2019-02-25T18:41:50.953Z,8.98
2019-02-25T18:44:27.317Z,8.95
2019-02-25T18:46:56.036Z,9.00
2019-02-25T18:49:26.627Z,8.85
2019-02-25T18:51:57.637Z,8.81
2019-02-25T18:54:29.650Z,8.85
2019-02-25T18:56:59.097Z,8.81
2019-02-25T18:59:29.477Z,8.78
2019-02-25T19:02:00.934Z,8.71
2019-02-25T19:04:29.652Z,8.62
2019-02-25T19:06:59.755Z,8.63
2019-02-25T19:09:31.529Z,8.46
2019-02-25T19:12:00.125Z,8.42
2019-02-25T19:14:29.374Z,8.27
2019-02-25T19:16:59.711Z,8.14
2019-02-25T19:19:31.433Z,8.16
2019-02-25T19:21:59.878Z,8.20
2019-02-25T19:24:33.247Z,8.11
2019-02-25T19:27:06.427Z,8.06
2019-02-25T19:29:34.711Z,7.97
2019-02-25T19:32:06.162Z,8.10
2019-02-25T19:34:34.892Z,8.06
2019-02-25T19:37:05.189Z,7.93
2019-02-25T19:39:39.090Z,8.00
2019-02-25T19:42:15.090Z,8.04
2019-02-25T19:44:42.428Z,8.10
2019-02-25T19:47:11.938Z,8.04
2019-02-25T19:49:45.716Z,8.03
2019-02-25T19:52:16.661Z,8.14
2019-02-25T19:54:46.412Z,8.11
2019-02-25T19:57:16.613Z,8.22
2019-02-25T19:59:50.697Z,8.12
2019-02-25T20:02:19.114Z,8.08
2019-02-25T20:04:50.199Z,8.05
2019-02-25T20:07:20.528Z,8.00
2019-02-25T20:09:52.482Z,7.99
2019-02-25T20:12:21.135Z,7.97
2019-02-25T20:14:52.905Z,7.91
2019-02-25T20:17:25.946Z,7.85
2019-02-25T20:19:52.584Z,7.83
2019-02-25T20:22:21.209Z,7.75
2019-02-25T20:24:50.633Z,7.65
2019-02-25T20:27:20.298Z,7.60
2019-02-25T20:29:49.581Z,7.52
2019-02-25T20:32:19.026Z,7.48
2019-02-25T20:34:50.621Z,7.42
2019-02-25T20:37:22.747Z,7.34
2019-02-25T20:39:50.134Z,7.26
2019-02-25T20:42:22.389Z,7.24
2019-02-25T20:44:55.336Z,7.23
2019-02-25T20:47:25.751Z,7.20
2019-02-25T20:49:56.474Z,7.20
2019-02-25T20:52:24.628Z,7.18
2019-02-25T20:54:53.622Z,7.01
2019-02-25T20:57:22.192Z,6.95
2019-02-25T20:59:55.426Z,6.90
2019-02-25T21:02:25.656Z,6.95
2019-02-25T21:04:54.567Z,6.82
2019-02-25T21:07:24.732Z,6.74
2019-02-25T21:09:59.132Z,6.73
2019-02-25T21:12:28.209Z,6.78
2019-02-25T21:14:56.839Z,6.73
2019-02-25T21:17:28.570Z,6.64
2019-02-25T21:20:00.240Z,6.61
2019-02-25T21:22:32.213Z,6.57
2019-02-25T21:25:04.892Z,6.55
2019-02-25T21:27:37.490Z,6.47
2019-02-25T21:30:12.844Z,6.39
2019-02-25T21:32:43.235Z,6.34
2019-02-25T21:35:14.149Z,6.30
2019-02-25T21:37:47.868Z,6.22
2019-02-25T21:40:27.806Z,6.24
2019-02-25T21:42:59.362Z,6.09
2019-02-25T21:45:33.848Z,6.17
2019-02-25T21:48:14.778Z,6.20
2019-02-25T21:50:43.368Z,6.00
2019-02-25T21:53:16.079Z,6.00
2019-02-25T21:55:48.023Z,5.91
2019-02-25T21:58:18.926Z,6.01
2019-02-25T22:00:47.311Z,6.00
2019-02-25T22:03:19.601Z,5.90
2019-02-25T22:05:53.948Z,5.79
2019-02-25T22:08:24.357Z,5.82
2019-02-25T22:10:58.246Z,5.74
2019-02-25T22:13:29.482Z,5.58
2019-02-25T22:16:01.821Z,5.63
2019-02-25T22:18:36.346Z,5.63
2019-02-25T22:21:07.224Z,5.63
2019-02-25T22:23:38.305Z,5.57
2019-02-25T22:26:06.907Z,5.57
2019-02-25T22:28:37.588Z,5.57
2019-02-25T22:31:10.820Z,5.52
2019-02-25T22:33:39.152Z,5.62
2019-02-25T22:36:10.670Z,5.62
2019-02-25T22:38:39.258Z,5.56
2019-02-25T22:41:07.852Z,5.56
2019-02-25T22:43:41.342Z,5.46
2019-02-25T22:46:11.647Z,5.48
2019-02-25T22:48:44.957Z,5.55
2019-02-25T22:51:16.204Z,5.59
2019-02-25T22:53:47.699Z,5.53
2019-02-25T22:56:21.474Z,5.44
2019-02-25T22:58:49.795Z,5.44
2019-02-25T23:01:19.003Z,5.44
2019-02-25T23:03:49.792Z,5.47
2019-02-25T23:06:23.083Z,5.44
2019-02-25T23:08:55.656Z,5.50
2019-02-25T23:11:28.702Z,5.50
2019-02-25T23:14:07.762Z,5.51
2019-02-25T23:17:17.947Z,5.45
2019-02-25T23:23:21.209Z,5.43
2019-02-25T23:25:53.760Z,5.46
2019-02-25T23:28:22.818Z,5.43
2019-02-25T23:30:58.385Z,5.48
2019-02-25T23:33:26.975Z,5.50
2019-02-25T23:35:58.317Z,5.50
2019-02-25T23:38:29.773Z,5.39
2019-02-25T23:41:01.256Z,5.45
2019-02-25T23:43:28.635Z,5.45
2019-02-25T23:46:00.145Z,5.34
2019-02-25T23:48:33.724Z,5.32
2019-02-25T23:51:05.676Z,5.32
2019-02-25T23:53:37.466Z,5.34
2019-02-25T23:56:06.068Z,5.30
2019-02-25T23:58:40.341Z,5.26
